Mac Dill Air Force Base
KMCF : now visible

Airfield :











YOU CAN JOIN US ON...

 
LOGIN :

Register | Disclaimer

   EN    FR    IT 

 









Legend :    VFR   Marginal VFR   IFR   Intensive IFR   Very Intensive IFR
Visi :
Ceiling :
>= 8 km
>= 3000ft
5 to 8 km
1000 to 3000 ft
1500m to 5 km
500 to 1000 ft
800 to 1500m
200 to 500 ft
< 800m
< 200 ft
Symbols :   Thunderstorms  Fog  Heavy snow  Heavy precipitations  Wind > 20 kt






- Airport Elevation : 14 ft


KMCF - Mac Dill Air Force Base

CURRENT METAR :
  • 290555Z AUTO 30006KT 10SM CLR 27/24 A3000 RMK AO2 SLP162 T02700238 10315 20269 57007 FZRANO $

EXPIRED METARs :
  • 290455Z AUTO 30004KT 10SM CLR 27/24 A3001 RMK AO2 SLP165 T02720238 403380236 FZRANO $
  • 290355Z AUTO 29004KT 10SM CLR 27/24 A3001 RMK AO2 SLP165 T02740240 FZRANO $
  • 290255Z AUTO 30004KT 10SM CLR 28/24 A3002 RMK AO2 SLP168 T02800240 52016 FZRANO $

TAF TAF KMCF
Valid from the 29 at 01:00 until the 30 at 07:00 UTC


290100Z 2901/3007 VRB06KT 9999 FEW040 QNH2999INS
BECMG 2914/2915 34010G15KT 9999 FEW040 QNH3000INS TX34/2921Z TN26/2911Z
KZMA FIR / North America



MET'MAP, your aeronautical weather chart ! - Copyright ORBIFLY December 2007 - Disclaimer

ORBIFLY MET'MAP TEAM :

Programming & Development : Alexandra Zaïnal
Original concept : Baudouin d'Aumeries
Technical & hardware support : Manuel Goepfert
Assistance : Marc-Olivier Méhu




SOURCES & CREDITS :

   NOAA       Earth
Advisory